Newbury, NH (03255)

10:44 AM EST on November 22, 2014 (GMT -0500)
North Peak Village | Change Station
CLOSE
Current Station
Personal Weather Station
Location: Newbury, NH
Elevation: 1434 ft
Nearby Weather Stations

Elev 1434 ft 43.34 °N, 72.06 °W | Updated 2 minutes ago

Partly Cloudy
Partly Cloudy
24.5 °F
Feels Like 24 °F
N
1.0
Wind Variable Wind from WNW
Gusts 14.0 mph

Today
High -- | Low -- °F
--% Chance of Precip.
Yesterday
High -- | Low -- °F
Precip. -- in
6:50 AM 4:18 PM
New Moon, 0% visible
Pressure 30.30 in
Visibility 10.0 miles
Clouds Clear
Windchill 24 °F
Dew Point 14 °F
Humidity 64%
Rainfall 0.00 in
Snow Depth Not available.
UV 2 out of 12
Pollen .10 out of 12
Air Quality Not available.
Flu Activity Not available.
METAR KVSF 221454Z AUTO 18005KT 10SM CLR M03/M11 A3027 RMK AO2 SLP260 T10281106 58021 $

More Conditions Fewer Conditions

Pressure 30.30 in
Visibility 10.0 miles
Clouds Clear
Windchill 24 °F
Dew Point 14 °F
Humidity 64%
Rainfall 0.00 in
Snow Depth Not available.
UV 2 out of 12
Pollen .10 out of 12
Air Quality Not available.
Flu Activity Not available.
METAR KVSF 221454Z AUTO 18005KT 10SM CLR M03/M11 A3027 RMK AO2 SLP260 T10281106 58021 $

More Conditions Fewer Conditions

10-Day Weather Forecast

Almanac

Astronomy

Nov. 22, 2014 Rise Set
Actual Time
Civil Twilight
Nautical Twilight
Astronomical Twilight
Moon
Length of Visible Light
Length of Day
Tomorrow will be .
, % of the Moon is Illuminated

Today's Extremes

State Highs State Lows

Community

WunderPhotos

Upload Photos

1,772,837 photos uploaded!

WunderBlogs® & News

Nearby

Air Quality

  Air Quality AQ Index Pollutant
Not available.

Snow Depth

Station Depth Elevation

Earthquake Activity

City Distance Mag. Time & Date
Minimum magnitude displayed is 2.5.

Coastal Water Temperatures

Place Temperature

Nearby Weather Stations